createdAt,value
2018-11-27T00:00:31.863Z,38.00
2018-11-27T00:01:31.877Z,37.60
2018-11-27T00:02:31.815Z,35.60
2018-11-27T00:03:31.796Z,38.00
2018-11-27T00:04:31.765Z,36.60
2018-11-27T00:05:31.777Z,37.10
2018-11-27T00:06:31.712Z,37.00
2018-11-27T00:07:31.687Z,37.00
2018-11-27T00:08:31.663Z,38.10
2018-11-27T00:09:31.640Z,36.50
2018-11-27T00:10:31.614Z,37.10
2018-11-27T00:11:31.589Z,38.00
2018-11-27T00:12:31.565Z,37.30
2018-11-27T00:13:31.540Z,37.60
2018-11-27T00:14:31.515Z,38.60
2018-11-27T00:15:31.491Z,40.10
2018-11-27T00:16:31.471Z,37.90
2018-11-27T00:17:31.448Z,37.70
2018-11-27T00:18:31.416Z,40.00
2018-11-27T00:19:31.390Z,37.90
2018-11-27T00:20:31.366Z,40.20
2018-11-27T00:21:31.339Z,40.90
2018-11-27T00:22:31.315Z,40.00
2018-11-27T00:23:31.292Z,39.00
2018-11-27T00:24:31.265Z,37.70
2018-11-27T00:25:31.242Z,39.20
2018-11-27T00:26:31.216Z,38.70
2018-11-27T00:27:31.194Z,39.10
2018-11-27T00:28:31.713Z,38.80
2018-11-27T00:29:31.144Z,40.30
2018-11-27T00:30:31.117Z,40.70
2018-11-27T00:31:31.129Z,38.80
2018-11-27T00:32:31.067Z,39.80
2018-11-27T00:33:31.041Z,40.30
2018-11-27T00:34:31.027Z,40.60
2018-11-27T00:35:30.994Z,39.50
2018-11-27T00:36:30.968Z,40.90
2018-11-27T00:37:30.941Z,39.80
2018-11-27T00:38:30.919Z,40.10
2018-11-27T00:39:30.893Z,40.90
2018-11-27T00:40:30.869Z,38.80
2018-11-27T00:41:30.842Z,40.40
2018-11-27T00:42:30.818Z,39.90
2018-11-27T00:43:30.805Z,40.10
2018-11-27T00:44:30.772Z,39.40
2018-11-27T00:45:30.745Z,39.90
2018-11-27T00:46:30.719Z,39.60
2018-11-27T00:47:30.693Z,40.70
2018-11-27T00:48:30.669Z,39.60
2018-11-27T00:49:30.643Z,39.80
2018-11-27T00:50:30.620Z,39.60
2018-11-27T00:51:30.595Z,39.10
2018-11-27T00:52:30.570Z,42.10
2018-11-27T00:53:30.546Z,38.90
2018-11-27T00:54:30.519Z,41.20
2018-11-27T00:55:30.493Z,37.50
2018-11-27T00:56:30.470Z,38.10
2018-11-27T00:57:30.449Z,37.80
2018-11-27T00:58:30.420Z,39.90
2018-11-27T00:59:30.397Z,39.60
2018-11-27T01:00:30.379Z,40.90
2018-11-27T01:01:30.346Z,38.40
2018-11-27T01:02:30.321Z,38.50
2018-11-27T01:03:30.297Z,37.90
2018-11-27T01:04:30.286Z,39.30
2018-11-27T01:05:30.245Z,40.50
2018-11-27T01:06:30.226Z,39.70
2018-11-27T01:07:30.195Z,39.70
2018-11-27T01:08:30.172Z,40.20
2018-11-27T01:09:30.146Z,38.00
2018-11-27T01:10:30.122Z,40.40
2018-11-27T01:11:30.097Z,40.00
2018-11-27T01:12:30.073Z,39.50
2018-11-27T01:13:30.055Z,40.70
2018-11-27T01:14:30.022Z,38.10
2018-11-27T01:15:29.998Z,39.50
2018-11-27T01:16:29.975Z,39.30
2018-11-27T01:17:29.946Z,39.90
2018-11-27T01:18:29.921Z,40.10
2018-11-27T01:19:29.898Z,38.90
2018-11-27T01:20:29.875Z,38.10
2018-11-27T01:21:29.847Z,38.20
2018-11-27T01:22:29.824Z,38.80
2018-11-27T01:23:29.801Z,39.20
2018-11-27T01:24:29.788Z,38.20
2018-11-27T01:25:29.757Z,39.70
2018-11-27T01:26:29.725Z,38.60
2018-11-27T01:27:29.714Z,37.90
2018-11-27T01:28:29.675Z,39.20
2018-11-27T01:29:29.653Z,38.00
2018-11-27T01:30:29.627Z,38.80
2018-11-27T01:31:29.600Z,38.60
2018-11-27T01:32:29.591Z,38.30
2018-11-27T01:33:29.558Z,38.50
2018-11-27T01:34:29.527Z,38.50
2018-11-27T01:35:29.501Z,35.50
2018-11-27T01:36:29.485Z,38.60
2018-11-27T01:37:29.452Z,37.20
2018-11-27T01:38:29.426Z,38.70
2018-11-27T01:39:29.403Z,38.70
2018-11-27T01:40:29.377Z,36.20
2018-11-27T01:41:29.351Z,39.40
2018-11-27T01:42:29.330Z,37.80
2018-11-27T01:43:29.303Z,38.80
2018-11-27T01:44:29.281Z,38.50
2018-11-27T01:45:29.256Z,36.30
2018-11-27T01:46:29.227Z,38.80
2018-11-27T01:47:29.207Z,39.10
2018-11-27T01:48:29.185Z,37.70
2018-11-27T01:49:29.154Z,37.70
2018-11-27T01:50:29.129Z,38.80
2018-11-27T01:51:29.103Z,37.50
2018-11-27T01:52:29.081Z,39.20
2018-11-27T01:53:29.057Z,37.20
2018-11-27T01:54:29.031Z,39.10
2018-11-27T01:55:29.005Z,38.00
2018-11-27T01:56:28.983Z,38.30
2018-11-27T01:57:28.954Z,38.40
2018-11-27T01:58:28.931Z,38.60
2018-11-27T01:59:28.905Z,37.20
2018-11-27T02:00:28.883Z,37.50
2018-11-27T02:01:28.863Z,37.90
2018-11-27T02:02:28.841Z,37.60
2018-11-27T02:03:28.808Z,38.20
2018-11-27T02:04:28.783Z,36.50
2018-11-27T02:05:28.755Z,37.80
2018-11-27T02:06:28.731Z,36.30
2018-11-27T02:07:28.714Z,38.20
2018-11-27T02:08:28.682Z,35.70
2018-11-27T02:09:28.718Z,38.50
2018-11-27T02:10:28.634Z,36.30
2018-11-27T02:11:28.608Z,37.90
2018-11-27T02:12:28.582Z,37.60
2018-11-27T02:13:28.558Z,39.00
2018-11-27T02:14:28.534Z,37.70
2018-11-27T02:15:28.509Z,36.10
2018-11-27T02:16:28.489Z,38.60
2018-11-27T02:17:28.460Z,37.70
2018-11-27T02:18:28.436Z,36.30
2018-11-27T02:19:28.421Z,36.40
2018-11-27T02:20:28.412Z,37.20
2018-11-27T02:21:28.362Z,37.00
2018-11-27T02:22:28.338Z,37.50
2018-11-27T02:23:28.313Z,35.90
2018-11-27T02:24:28.288Z,37.40
2018-11-27T02:25:28.260Z,35.20
2018-11-27T02:26:28.238Z,35.40
2018-11-27T02:27:28.212Z,37.00
2018-11-27T02:28:28.189Z,35.70
2018-11-27T02:29:28.161Z,35.00
2018-11-27T02:30:28.137Z,34.80
2018-11-27T02:31:28.127Z,34.90
2018-11-27T02:32:28.089Z,35.80
2018-11-27T02:33:28.064Z,35.20
2018-11-27T02:34:28.043Z,35.40
2018-11-27T02:35:28.014Z,36.40
2018-11-27T02:36:27.989Z,34.90
2018-11-27T02:37:27.965Z,34.80
2018-11-27T02:38:27.939Z,34.90
2018-11-27T02:39:27.915Z,37.20
2018-11-27T02:40:27.892Z,36.20
2018-11-27T02:41:27.865Z,36.00
2018-11-27T02:42:27.840Z,34.20
2018-11-27T02:43:27.814Z,33.60
2018-11-27T02:44:27.792Z,33.40
2018-11-27T02:45:27.770Z,36.40
2018-11-27T02:46:27.745Z,34.80
2018-11-27T02:47:27.716Z,35.40
2018-11-27T02:48:27.693Z,35.20
2018-11-27T02:49:27.669Z,35.70
2018-11-27T02:50:27.645Z,35.70
2018-11-27T02:51:27.618Z,32.50
2018-11-27T02:52:27.594Z,34.80
2018-11-27T02:53:27.567Z,34.70
2018-11-27T02:54:27.546Z,33.50
2018-11-27T02:55:27.518Z,34.70
2018-11-27T02:56:27.498Z,33.80
2018-11-27T02:57:27.477Z,34.00
2018-11-27T02:58:27.449Z,33.20
2018-11-27T02:59:27.424Z,34.70
2018-11-27T03:00:27.419Z,34.00
2018-11-27T03:01:27.370Z,34.30
2018-11-27T03:02:27.347Z,33.70
2018-11-27T03:03:27.322Z,32.90
2018-11-27T03:04:27.299Z,33.50
2018-11-27T03:05:27.275Z,35.00
2018-11-27T03:06:27.248Z,32.60
2018-11-27T03:07:27.239Z,34.20
2018-11-27T03:08:27.202Z,34.20
2018-11-27T03:09:27.177Z,34.40
2018-11-27T03:10:27.148Z,35.10
2018-11-27T03:11:27.126Z,32.60
2018-11-27T03:12:27.100Z,34.30
2018-11-27T03:13:27.073Z,33.60
2018-11-27T03:14:27.049Z,34.60
2018-11-27T03:15:27.025Z,33.20
2018-11-27T03:16:27.008Z,32.70
2018-11-27T03:17:26.972Z,32.90
2018-11-27T03:18:26.958Z,34.10
2018-11-27T03:19:26.929Z,33.50
2018-11-27T03:20:26.898Z,32.30
2018-11-27T03:21:26.875Z,33.70
2018-11-27T03:22:26.860Z,33.60
2018-11-27T03:23:26.829Z,34.00
2018-11-27T03:24:26.803Z,33.50
2018-11-27T03:25:26.777Z,32.70
2018-11-27T03:26:26.752Z,33.60
2018-11-27T03:27:26.727Z,33.20
2018-11-27T03:28:26.703Z,32.60
2018-11-27T03:29:26.678Z,33.00
2018-11-27T03:30:26.659Z,33.20
2018-11-27T03:31:26.636Z,32.30
2018-11-27T03:32:26.603Z,31.20
2018-11-27T03:33:26.580Z,33.50
2018-11-27T03:34:26.555Z,32.10
2018-11-27T03:35:26.528Z,33.60
2018-11-27T03:36:26.510Z,31.90
2018-11-27T03:37:26.481Z,32.40
2018-11-27T03:38:26.459Z,31.70
2018-11-27T03:39:26.441Z,32.80
2018-11-27T03:40:26.407Z,33.10
2018-11-27T03:41:26.386Z,31.30
2018-11-27T03:42:26.356Z,32.30
2018-11-27T03:43:26.330Z,32.80
2018-11-27T03:44:26.305Z,33.10
2018-11-27T03:45:26.303Z,32.00
2018-11-27T03:46:26.257Z,33.70
2018-11-27T03:47:26.233Z,32.10
2018-11-27T03:48:26.225Z,31.40
2018-11-27T03:49:26.192Z,30.80
2018-11-27T03:50:26.162Z,32.10
2018-11-27T03:51:26.149Z,30.90
2018-11-27T03:52:26.112Z,32.00
2018-11-27T03:53:26.085Z,31.20
2018-11-27T03:54:26.066Z,33.30
2018-11-27T03:55:26.035Z,31.70
2018-11-27T03:56:26.009Z,30.50
2018-11-27T03:57:25.986Z,31.50
2018-11-27T03:58:25.962Z,32.30
2018-11-27T03:59:25.938Z,30.60
2018-11-27T04:00:25.915Z,31.50
2018-11-27T04:01:25.888Z,33.10
2018-11-27T04:02:25.862Z,31.50
2018-11-27T04:03:25.837Z,32.20
2018-11-27T04:04:25.819Z,32.50
2018-11-27T04:05:25.791Z,32.10
2018-11-27T04:06:25.762Z,31.60
2018-11-27T04:07:25.739Z,30.90
2018-11-27T04:08:25.713Z,29.90
2018-11-27T04:09:25.689Z,31.40
2018-11-27T04:10:25.663Z,33.40
2018-11-27T04:11:25.643Z,31.50
2018-11-27T04:12:25.619Z,31.40
2018-11-27T04:13:25.594Z,31.80
2018-11-27T04:14:25.565Z,30.00
2018-11-27T04:15:25.540Z,31.80
2018-11-27T04:16:25.515Z,31.00
2018-11-27T04:17:25.491Z,30.90
2018-11-27T04:18:25.467Z,32.20
2018-11-27T04:19:25.444Z,31.90
2018-11-27T04:20:25.418Z,30.70
2018-11-27T04:21:25.394Z,32.10
2018-11-27T04:22:25.368Z,32.50
2018-11-27T04:23:25.345Z,31.10
2018-11-27T04:24:25.320Z,32.30
2018-11-27T04:25:25.298Z,31.20
2018-11-27T04:26:25.269Z,31.40
2018-11-27T04:27:25.245Z,31.50
2018-11-27T04:28:25.222Z,30.60
2018-11-27T04:29:25.195Z,31.20
2018-11-27T04:30:25.188Z,32.40
2018-11-27T04:31:25.146Z,32.60
2018-11-27T04:32:25.121Z,31.80
2018-11-27T04:33:25.096Z,31.40
2018-11-27T04:34:25.077Z,29.80
2018-11-27T04:35:25.049Z,30.80
2018-11-27T04:36:25.025Z,30.90
2018-11-27T04:37:24.998Z,32.10
2018-11-27T04:38:24.977Z,31.70
2018-11-27T04:39:24.950Z,32.30
2018-11-27T04:40:24.928Z,31.30
2018-11-27T04:41:24.955Z,31.10
2018-11-27T04:42:24.874Z,31.10
2018-11-27T04:43:24.853Z,29.90
2018-11-27T04:44:24.829Z,30.30
2018-11-27T04:45:24.803Z,31.20
2018-11-27T04:46:24.778Z,30.90
2018-11-27T04:47:24.753Z,32.50
2018-11-27T04:48:24.730Z,31.10
2018-11-27T04:49:24.706Z,32.00
2018-11-27T04:50:24.680Z,31.60
2018-11-27T04:51:24.655Z,31.70
2018-11-27T04:52:24.634Z,32.50
2018-11-27T04:53:24.607Z,30.80
2018-11-27T04:54:24.579Z,31.60
2018-11-27T04:55:24.558Z,31.90
2018-11-27T04:56:24.529Z,32.90
2018-11-27T04:57:24.508Z,29.80
2018-11-27T04:58:24.485Z,32.40
2018-11-27T04:59:24.457Z,32.90
2018-11-27T05:00:24.433Z,32.20
2018-11-27T05:01:24.407Z,31.50
2018-11-27T05:02:24.383Z,32.60
2018-11-27T05:03:24.358Z,33.70
2018-11-27T05:04:24.335Z,32.10
2018-11-27T05:05:24.308Z,31.60
2018-11-27T05:06:24.286Z,31.10
2018-11-27T05:07:24.266Z,31.70
2018-11-27T05:08:24.238Z,32.30
2018-11-27T05:09:24.214Z,32.70
2018-11-27T05:10:24.197Z,31.20
2018-11-27T05:11:24.159Z,33.20
2018-11-27T05:12:24.137Z,31.00
2018-11-27T05:13:24.111Z,32.30
2018-11-27T05:14:24.086Z,31.40
2018-11-27T05:15:24.066Z,30.30
2018-11-27T05:16:24.037Z,32.60
2018-11-27T05:17:24.011Z,32.40
2018-11-27T05:18:23.990Z,32.40
2018-11-27T05:19:23.964Z,31.50
2018-11-27T05:20:23.941Z,32.10
2018-11-27T05:21:23.913Z,32.80
2018-11-27T05:22:23.896Z,31.10
2018-11-27T05:23:23.868Z,33.10
2018-11-27T05:24:23.840Z,31.30
2018-11-27T05:25:23.815Z,33.10
2018-11-27T05:26:23.791Z,31.80
2018-11-27T05:27:23.768Z,32.10
2018-11-27T05:28:23.741Z,32.50
2018-11-27T05:29:23.715Z,32.30
2018-11-27T05:30:23.691Z,31.40
2018-11-27T05:31:23.667Z,31.90
2018-11-27T05:32:23.644Z,33.10
2018-11-27T05:33:23.617Z,29.80
2018-11-27T05:34:23.591Z,31.80
2018-11-27T05:35:23.569Z,32.10
2018-11-27T05:36:23.545Z,33.20
2018-11-27T05:37:23.521Z,29.90
2018-11-27T05:38:23.494Z,30.80
2018-11-27T05:39:23.473Z,31.20
2018-11-27T05:40:23.443Z,31.70
2018-11-27T05:41:23.421Z,32.60
2018-11-27T05:42:23.399Z,32.70
2018-11-27T05:43:23.377Z,31.70
2018-11-27T05:44:23.345Z,32.20
2018-11-27T05:45:23.322Z,32.30
2018-11-27T05:46:23.295Z,31.80
2018-11-27T05:47:23.271Z,30.50
2018-11-27T05:48:23.246Z,31.20
2018-11-27T05:49:23.230Z,30.20
2018-11-27T05:50:23.196Z,30.20
2018-11-27T05:51:23.172Z,31.80
2018-11-27T05:52:23.146Z,32.10
2018-11-27T05:53:23.130Z,31.70
2018-11-27T05:54:23.098Z,30.60
2018-11-27T05:55:23.075Z,31.90
2018-11-27T05:56:23.048Z,31.60
2018-11-27T05:57:23.023Z,31.50
2018-11-27T05:58:23.003Z,31.10
2018-11-27T05:59:22.987Z,32.60
2018-11-27T06:00:22.948Z,31.00
2018-11-27T06:01:22.925Z,31.70
2018-11-27T06:02:22.901Z,31.30
2018-11-27T06:03:22.875Z,31.60
2018-11-27T06:04:22.853Z,31.30
2018-11-27T06:05:22.831Z,31.90
2018-11-27T06:06:22.801Z,30.90
2018-11-27T06:07:22.777Z,31.10
2018-11-27T06:08:22.751Z,31.70
2018-11-27T06:09:22.726Z,31.00
2018-11-27T06:10:22.706Z,30.90
2018-11-27T06:11:22.679Z,31.20
2018-11-27T06:12:22.656Z,31.40
2018-11-27T06:13:22.641Z,30.30
2018-11-27T06:14:22.602Z,31.00
2018-11-27T06:15:22.593Z,30.20
2018-11-27T06:16:22.561Z,29.80
2018-11-27T06:17:22.531Z,31.80
2018-11-27T06:18:22.507Z,32.20
2018-11-27T06:19:22.483Z,30.10
2018-11-27T06:20:22.458Z,31.30
2018-11-27T06:21:22.436Z,31.40
2018-11-27T06:22:22.426Z,30.20
2018-11-27T06:23:22.391Z,30.00
2018-11-27T06:24:22.359Z,30.90
2018-11-27T06:25:22.333Z,32.10
2018-11-27T06:26:22.316Z,31.20
2018-11-27T06:27:22.286Z,31.70
2018-11-27T06:28:22.271Z,31.00
2018-11-27T06:29:22.235Z,30.40
2018-11-27T06:30:22.212Z,29.30
2018-11-27T06:31:22.187Z,29.60
2018-11-27T06:32:22.168Z,30.20
2018-11-27T06:33:22.136Z,31.90
2018-11-27T06:34:22.112Z,31.90
2018-11-27T06:35:22.092Z,31.00
2018-11-27T06:36:22.067Z,29.70
2018-11-27T06:37:22.042Z,30.80
2018-11-27T06:38:22.015Z,31.10
2018-11-27T06:39:22.003Z,32.30
2018-11-27T06:40:21.982Z,35.30
2018-11-27T06:41:21.945Z,35.40
2018-11-27T06:42:21.919Z,36.90
2018-11-27T06:43:21.894Z,37.30
2018-11-27T06:44:21.868Z,38.40
2018-11-27T06:45:21.844Z,40.30
2018-11-27T06:46:21.822Z,36.70
2018-11-27T06:47:21.800Z,32.10
2018-11-27T06:48:21.770Z,32.50
2018-11-27T06:49:21.744Z,31.80
2018-11-27T06:50:21.729Z,29.70
2018-11-27T06:51:21.699Z,29.90
2018-11-27T06:52:21.685Z,30.00
2018-11-27T06:53:21.647Z,30.70
2018-11-27T06:54:21.623Z,30.40
2018-11-27T06:55:21.598Z,28.60
2018-11-27T06:56:21.575Z,30.10
2018-11-27T06:57:21.731Z,28.80
2018-11-27T06:58:21.524Z,29.00
2018-11-27T06:59:21.500Z,30.00
2018-11-27T07:00:21.477Z,28.50
2018-11-27T07:01:21.451Z,28.80
2018-11-27T07:02:21.429Z,28.10
2018-11-27T07:03:21.403Z,29.40
2018-11-27T07:04:21.379Z,27.70
2018-11-27T07:05:21.353Z,28.20
2018-11-27T07:06:21.329Z,28.20
2018-11-27T07:07:21.304Z,28.90
2018-11-27T07:08:21.280Z,28.30
2018-11-27T07:09:21.255Z,28.00
2018-11-27T07:10:21.231Z,28.50
2018-11-27T07:11:21.217Z,28.20
2018-11-27T07:12:21.183Z,30.00
2018-11-27T07:13:21.162Z,28.20
2018-11-27T07:14:21.140Z,30.90
2018-11-27T07:15:21.108Z,27.10
2018-11-27T07:16:21.089Z,29.30
2018-11-27T07:17:21.058Z,28.60
2018-11-27T07:18:21.041Z,29.60
2018-11-27T07:19:21.009Z,29.70
2018-11-27T07:20:20.986Z,28.50
2018-11-27T07:21:20.960Z,28.50
2018-11-27T07:22:20.946Z,29.70
2018-11-27T07:23:20.914Z,27.60
2018-11-27T07:24:20.893Z,27.60
2018-11-27T07:25:20.862Z,29.00
2018-11-27T07:26:20.841Z,29.00
2018-11-27T07:27:20.816Z,28.80
2018-11-27T07:28:20.793Z,27.80
2018-11-27T07:29:20.768Z,26.90
2018-11-27T07:30:20.744Z,29.00
2018-11-27T07:31:20.717Z,29.40
2018-11-27T07:32:20.694Z,27.60
2018-11-27T07:33:20.669Z,28.00
2018-11-27T07:34:20.681Z,27.80
2018-11-27T07:35:20.626Z,27.60
2018-11-27T07:36:20.592Z,27.80
2018-11-27T07:37:20.568Z,28.60
2018-11-27T07:38:20.544Z,27.70
2018-11-27T07:39:20.520Z,27.10
2018-11-27T07:40:20.499Z,27.50
2018-11-27T07:41:20.472Z,27.80
2018-11-27T07:42:20.451Z,25.70
2018-11-27T07:43:20.422Z,27.00
2018-11-27T07:44:20.398Z,25.40
2018-11-27T07:45:20.382Z,26.50
2018-11-27T07:46:20.351Z,27.00
2018-11-27T07:47:20.325Z,26.20
2018-11-27T07:48:20.305Z,26.10
2018-11-27T07:49:20.276Z,28.70
2018-11-27T07:50:20.259Z,26.70
2018-11-27T07:51:20.231Z,26.90
2018-11-27T07:52:20.210Z,25.80
2018-11-27T07:53:20.178Z,26.70
2018-11-27T07:54:20.164Z,26.50
2018-11-27T07:55:20.129Z,26.70
2018-11-27T07:56:20.107Z,27.60
2018-11-27T07:57:20.081Z,25.10
2018-11-27T07:58:20.061Z,26.20
2018-11-27T07:59:20.033Z,27.10
2018-11-27T08:00:20.017Z,28.00
2018-11-27T08:01:19.984Z,26.00
2018-11-27T08:02:19.961Z,26.50
2018-11-27T08:03:19.943Z,27.70
2018-11-27T08:04:19.915Z,27.80
2018-11-27T08:05:19.884Z,28.30
2018-11-27T08:06:19.863Z,26.00
2018-11-27T08:07:19.837Z,26.70
2018-11-27T08:08:19.812Z,27.00
2018-11-27T08:09:19.787Z,26.60
2018-11-27T08:10:19.762Z,26.60
2018-11-27T08:11:19.738Z,27.20
2018-11-27T08:12:19.715Z,27.10
2018-11-27T08:13:19.687Z,27.70
2018-11-27T08:14:19.667Z,25.20
2018-11-27T08:15:19.640Z,27.20
2018-11-27T08:16:19.615Z,25.80
2018-11-27T08:17:19.593Z,26.70
2018-11-27T08:18:20.591Z,27.50
2018-11-27T08:19:19.540Z,27.00
2018-11-27T08:20:19.519Z,27.10
2018-11-27T08:21:19.504Z,26.90
2018-11-27T08:22:19.486Z,26.90
2018-11-27T08:23:19.453Z,27.10
2018-11-27T08:24:19.419Z,28.10
2018-11-27T08:25:19.393Z,27.90
2018-11-27T08:26:19.367Z,26.10
2018-11-27T08:27:19.348Z,25.80
2018-11-27T08:28:19.320Z,27.90
2018-11-27T08:29:19.295Z,28.00
2018-11-27T08:30:19.273Z,26.20
2018-11-27T08:31:19.247Z,26.80
2018-11-27T08:32:19.221Z,26.70
2018-11-27T08:33:19.198Z,28.70
2018-11-27T08:34:19.172Z,27.00
2018-11-27T08:35:19.156Z,27.00
2018-11-27T08:36:19.129Z,27.10
2018-11-27T08:37:19.098Z,26.30
2018-11-27T08:38:19.074Z,26.80
2018-11-27T08:39:19.049Z,26.00
2018-11-27T08:40:19.088Z,25.80
2018-11-27T08:41:19.008Z,26.50
2018-11-27T08:42:18.973Z,28.80
2018-11-27T08:43:18.952Z,27.90
2018-11-27T08:44:18.934Z,27.10
2018-11-27T08:45:18.904Z,25.50
2018-11-27T08:46:18.878Z,26.90
2018-11-27T08:47:18.856Z,26.20
2018-11-27T08:48:18.829Z,25.40
2018-11-27T08:49:18.804Z,27.80
2018-11-27T08:50:18.784Z,28.10
2018-11-27T08:51:18.754Z,26.00
2018-11-27T08:52:18.734Z,26.70
2018-11-27T08:53:18.710Z,26.50
2018-11-27T08:54:18.684Z,28.00
2018-11-27T08:55:18.661Z,26.50
2018-11-27T08:56:18.634Z,26.20
2018-11-27T08:57:18.611Z,26.80
2018-11-27T08:58:18.603Z,26.40
2018-11-27T08:59:18.564Z,26.00
2018-11-27T09:00:18.537Z,27.30
2018-11-27T09:01:18.510Z,27.20
2018-11-27T09:02:18.486Z,26.80
2018-11-27T09:03:18.461Z,26.10
2018-11-27T09:04:18.437Z,26.00
2018-11-27T09:05:18.420Z,26.20
2018-11-27T09:06:18.405Z,27.90
2018-11-27T09:07:18.368Z,25.50
2018-11-27T09:08:18.340Z,26.80
2018-11-27T09:09:18.314Z,26.60
2018-11-27T09:10:18.293Z,26.70
2018-11-27T09:11:18.266Z,27.70
2018-11-27T09:12:18.243Z,28.40
2018-11-27T09:13:18.249Z,26.90
2018-11-27T09:14:18.193Z,28.30
2018-11-27T09:15:18.168Z,28.20
2018-11-27T09:16:18.152Z,26.50
2018-11-27T09:17:18.129Z,28.80
2018-11-27T09:18:18.098Z,27.40
2018-11-27T09:19:18.071Z,28.90
2018-11-27T09:20:18.052Z,28.40
2018-11-27T09:21:18.021Z,28.90
2018-11-27T09:22:18.006Z,28.30
2018-11-27T09:23:17.973Z,29.20
2018-11-27T09:24:17.950Z,28.70
2018-11-27T09:25:17.923Z,27.00
2018-11-27T09:26:17.899Z,27.70
2018-11-27T09:27:17.874Z,28.20
2018-11-27T09:28:17.855Z,28.20
2018-11-27T09:29:17.827Z,28.40
2018-11-27T09:30:17.801Z,27.10
2018-11-27T09:31:17.779Z,27.30
2018-11-27T09:32:17.756Z,29.10
2018-11-27T09:33:17.728Z,27.60
2018-11-27T09:34:17.704Z,27.00
2018-11-27T09:35:17.684Z,27.80
2018-11-27T09:36:17.658Z,28.00
2018-11-27T09:37:17.632Z,28.20
2018-11-27T09:38:17.609Z,27.60
2018-11-27T09:39:17.591Z,28.70
2018-11-27T09:40:17.583Z,28.60
2018-11-27T09:41:17.537Z,27.50
2018-11-27T09:42:17.511Z,27.70
2018-11-27T09:43:17.496Z,28.30
2018-11-27T09:44:17.487Z,26.80
2018-11-27T09:45:17.436Z,27.50
2018-11-27T09:46:17.410Z,28.40
2018-11-27T09:47:17.389Z,27.60
2018-11-27T09:48:17.374Z,27.70
2018-11-27T09:49:17.338Z,27.50
2018-11-27T09:50:17.314Z,28.60
2018-11-27T09:51:17.298Z,28.20
2018-11-27T09:52:17.264Z,28.20
2018-11-27T09:53:17.237Z,28.50
2018-11-27T09:54:17.216Z,26.80
2018-11-27T09:55:17.192Z,27.80
2018-11-27T09:56:17.166Z,28.90
2018-11-27T09:57:17.140Z,27.40
2018-11-27T09:58:17.121Z,29.00
2018-11-27T09:59:17.092Z,29.00
2018-11-27T10:00:17.067Z,28.20
2018-11-27T10:01:17.043Z,27.10
2018-11-27T10:02:17.017Z,27.80
2018-11-27T10:03:16.996Z,27.40
2018-11-27T10:04:16.983Z,27.60
2018-11-27T10:05:16.944Z,28.60
2018-11-27T10:06:16.921Z,27.60
2018-11-27T10:07:16.903Z,27.10
2018-11-27T10:08:16.870Z,27.60
2018-11-27T10:09:16.847Z,28.50
2018-11-27T10:10:16.821Z,28.00
2018-11-27T10:11:16.796Z,27.20
2018-11-27T10:12:16.772Z,28.50
2018-11-27T10:13:16.746Z,29.30
2018-11-27T10:14:16.726Z,27.60
2018-11-27T10:15:16.709Z,28.20
2018-11-27T10:16:16.674Z,28.10
2018-11-27T10:17:16.653Z,28.60
2018-11-27T10:18:16.627Z,26.80
2018-11-27T10:19:16.601Z,27.70
2018-11-27T10:20:16.577Z,27.10
2018-11-27T10:21:16.557Z,28.30
2018-11-27T10:22:16.531Z,27.90
2018-11-27T10:23:16.510Z,29.10
2018-11-27T10:24:16.490Z,28.00
2018-11-27T10:25:16.459Z,27.70
2018-11-27T10:26:16.431Z,26.30
2018-11-27T10:27:16.412Z,27.00
2018-11-27T10:28:16.383Z,27.00
2018-11-27T10:29:16.357Z,27.50
2018-11-27T10:30:16.333Z,28.30
2018-11-27T10:31:16.306Z,26.60
2018-11-27T10:32:16.294Z,27.80
2018-11-27T10:33:16.258Z,26.90
2018-11-27T10:34:16.238Z,28.40
2018-11-27T10:35:16.209Z,27.40
2018-11-27T10:36:16.187Z,25.80
2018-11-27T10:37:16.161Z,27.00
2018-11-27T10:38:16.145Z,27.70
2018-11-27T10:39:16.114Z,27.40
2018-11-27T10:40:16.089Z,27.50
2018-11-27T10:41:16.071Z,27.20
2018-11-27T10:42:16.040Z,27.50
2018-11-27T10:43:19.760Z,28.00
2018-11-27T10:44:15.991Z,26.90
2018-11-27T10:45:15.970Z,26.70
2018-11-27T10:46:15.942Z,27.30
2018-11-27T10:47:15.921Z,27.50
2018-11-27T10:48:15.897Z,26.80
2018-11-27T10:49:15.868Z,27.40
2018-11-27T10:50:15.842Z,27.70
2018-11-27T10:51:15.820Z,26.00
2018-11-27T10:52:15.800Z,27.10
2018-11-27T10:53:15.770Z,27.70
2018-11-27T10:54:15.755Z,26.40
2018-11-27T10:55:15.727Z,27.80
2018-11-27T10:56:15.698Z,28.40
2018-11-27T10:57:15.671Z,26.90
2018-11-27T10:58:15.649Z,25.90
2018-11-27T10:59:15.625Z,27.50
2018-11-27T11:00:15.601Z,27.60
2018-11-27T11:01:15.574Z,27.30
2018-11-27T11:02:15.555Z,25.30
2018-11-27T11:03:15.529Z,26.90
2018-11-27T11:04:15.502Z,27.20
2018-11-27T11:05:15.481Z,27.10
2018-11-27T11:06:15.461Z,28.60
2018-11-27T11:07:15.726Z,27.50
2018-11-27T11:08:15.405Z,27.50
2018-11-27T11:09:15.381Z,27.40
2018-11-27T11:10:15.366Z,27.70
2018-11-27T11:11:15.336Z,27.70
2018-11-27T11:12:15.309Z,26.70
2018-11-27T11:13:15.283Z,26.30
2018-11-27T11:14:15.262Z,27.30
2018-11-27T11:15:15.255Z,27.00
2018-11-27T11:16:15.211Z,26.40
2018-11-27T11:17:15.189Z,27.90
2018-11-27T11:18:15.164Z,26.50
2018-11-27T11:19:18.363Z,27.50
2018-11-27T11:20:15.116Z,26.90
2018-11-27T11:21:15.088Z,26.90
2018-11-27T11:22:15.066Z,26.90
2018-11-27T11:23:15.041Z,25.80
2018-11-27T11:24:15.017Z,27.20
2018-11-27T11:25:14.999Z,27.10
2018-11-27T11:26:14.974Z,26.80
2018-11-27T11:27:14.945Z,25.50
2018-11-27T11:28:14.917Z,27.30
2018-11-27T11:29:14.900Z,26.40
2018-11-27T11:30:14.881Z,26.30
2018-11-27T11:31:14.847Z,27.80
2018-11-27T11:32:14.823Z,26.50
2018-11-27T11:33:14.796Z,26.40
2018-11-27T11:34:14.776Z,26.50
2018-11-27T11:35:14.749Z,25.50
2018-11-27T11:36:14.725Z,25.90
2018-11-27T11:37:14.704Z,25.30
2018-11-27T11:38:14.683Z,25.40
2018-11-27T11:39:14.651Z,25.90
2018-11-27T11:40:14.628Z,27.30
2018-11-27T11:41:14.604Z,27.00
2018-11-27T11:42:14.578Z,25.90
2018-11-27T11:43:14.553Z,25.50
2018-11-27T11:44:14.532Z,26.30
2018-11-27T11:45:14.506Z,26.20
2018-11-27T11:46:14.481Z,25.40
2018-11-27T11:47:14.463Z,25.80
2018-11-27T11:48:14.432Z,25.00
2018-11-27T11:49:14.421Z,24.70
2018-11-27T11:50:14.386Z,24.10
2018-11-27T11:51:14.362Z,24.70
2018-11-27T11:52:14.344Z,23.00
2018-11-27T11:53:14.310Z,23.50
2018-11-27T11:54:14.286Z,23.60
2018-11-27T11:55:14.269Z,24.00
2018-11-27T11:56:14.238Z,23.20
2018-11-27T11:57:14.213Z,23.90
2018-11-27T11:58:14.195Z,25.00
2018-11-27T11:59:14.167Z,23.60
2018-11-27T12:00:14.179Z,23.80
2018-11-27T12:01:14.119Z,24.70
2018-11-27T12:02:14.092Z,23.90
2018-11-27T12:03:14.072Z,24.00
2018-11-27T12:04:14.044Z,23.10
2018-11-27T12:05:14.019Z,22.60
2018-11-27T12:06:13.999Z,23.80
2018-11-27T12:07:13.972Z,21.90
2018-11-27T12:08:13.951Z,22.00
2018-11-27T12:09:13.928Z,23.10
2018-11-27T12:10:13.900Z,23.50
2018-11-27T12:11:14.357Z,23.30
2018-11-27T12:12:13.850Z,23.40
2018-11-27T12:13:13.833Z,23.60
2018-11-27T12:14:13.801Z,23.10
2018-11-27T12:15:13.777Z,24.40
2018-11-27T12:16:13.754Z,23.30
2018-11-27T12:17:13.727Z,24.20
2018-11-27T12:18:13.708Z,22.80
2018-11-27T12:19:13.681Z,23.50
2018-11-27T12:20:13.656Z,24.60
2018-11-27T12:21:13.635Z,23.80
2018-11-27T12:22:13.614Z,24.00
2018-11-27T12:23:13.589Z,24.80
2018-11-27T12:24:13.556Z,23.50
2018-11-27T12:25:13.549Z,24.10
2018-11-27T12:26:13.516Z,22.80
2018-11-27T12:27:13.487Z,22.50
2018-11-27T12:28:14.936Z,21.90
2018-11-27T12:29:13.442Z,22.60
2018-11-27T12:30:13.425Z,22.90
2018-11-27T12:31:13.387Z,22.40
2018-11-27T12:32:13.371Z,23.10
2018-11-27T12:33:13.339Z,23.40
2018-11-27T12:34:13.320Z,24.20
2018-11-27T12:35:13.303Z,22.60
2018-11-27T12:36:13.267Z,24.00
2018-11-27T12:37:13.241Z,22.70
2018-11-27T12:38:13.218Z,23.30
2018-11-27T12:39:13.210Z,22.70
2018-11-27T12:40:13.172Z,21.80
2018-11-27T12:41:13.144Z,22.90
2018-11-27T12:42:13.120Z,21.00
2018-11-27T12:43:13.101Z,21.30
2018-11-27T12:44:13.073Z,21.90
2018-11-27T12:45:13.058Z,21.40
2018-11-27T12:46:13.022Z,20.10
2018-11-27T12:47:13.000Z,22.80
2018-11-27T12:48:12.979Z,21.20
2018-11-27T12:49:12.969Z,20.50
2018-11-27T12:50:12.924Z,21.30
2018-11-27T12:51:13.528Z,21.70
2018-11-27T12:52:12.876Z,21.10